sensor_id;sensor_type;location;lat;lon;timestamp;pressure;altitude;pressure_sealevel;temperature;humidity
6090;BME280;3073;42.660;23.316;2023-04-15T00:00:17;93730.88;;;19.67;39.26
6090;BME280;3073;42.660;23.316;2023-04-15T00:02:44;93736.66;;;19.64;39.00
6090;BME280;3073;42.660;23.316;2023-04-15T00:05:11;93753.47;;;20.46;37.76
6090;BME280;3073;42.660;23.316;2023-04-15T00:07:38;93764.16;;;20.65;38.06
6090;BME280;3073;42.660;23.316;2023-04-15T00:10:05;93763.25;;;21.02;37.79
6090;BME280;3073;42.660;23.316;2023-04-15T00:12:50;93772.53;;;21.57;36.90
6090;BME280;3073;42.660;23.316;2023-04-15T00:15:18;93761.63;;;21.19;37.36
6090;BME280;3073;42.660;23.316;2023-04-15T00:17:45;93767.88;;;21.50;37.22
6090;BME280;3073;42.660;23.316;2023-04-15T00:20:12;93767.28;;;21.33;37.39
6090;BME280;3073;42.660;23.316;2023-04-15T00:22:40;93755.22;;;20.95;37.95
6090;BME280;3073;42.660;23.316;2023-04-15T00:25:08;93752.88;;;21.02;38.15
6090;BME280;3073;42.660;23.316;2023-04-15T00:27:35;93748.81;;;20.81;38.61
6090;BME280;3073;42.660;23.316;2023-04-15T00:30:04;93751.59;;;20.34;39.64
6090;BME280;3073;42.660;23.316;2023-04-15T00:32:31;93758.09;;;18.01;43.77
6090;BME280;3073;42.660;23.316;2023-04-15T00:34:58;93754.91;;;18.78;42.68
6090;BME280;3073;42.660;23.316;2023-04-15T00:37:25;93755.72;;;19.60;40.63
6090;BME280;3073;42.660;23.316;2023-04-15T00:39:52;93762.75;;;19.88;39.88
6090;BME280;3073;42.660;23.316;2023-04-15T00:42:19;93756.50;;;20.89;38.40
6090;BME280;3073;42.660;23.316;2023-04-15T00:44:47;93763.13;;;21.20;37.93
6090;BME280;3073;42.660;23.316;2023-04-15T00:47:16;93760.75;;;21.60;37.36
6090;BME280;3073;42.660;23.316;2023-04-15T00:49:43;93754.47;;;21.61;37.69
6090;BME280;3073;42.660;23.316;2023-04-15T00:52:10;93758.56;;;21.62;37.67
6090;BME280;3073;42.660;23.316;2023-04-15T00:54:37;93759.06;;;21.31;37.99
6090;BME280;3073;42.660;23.316;2023-04-15T00:57:04;93759.63;;;21.48;37.90
6090;BME280;3073;42.660;23.316;2023-04-15T00:59:32;93757.09;;;20.53;39.03
6090;BME280;3073;42.660;23.316;2023-04-15T01:01:59;93758.59;;;20.04;39.91
6090;BME280;3073;42.660;23.316;2023-04-15T01:04:28;93768.06;;;19.92;39.97
6090;BME280;3073;42.660;23.316;2023-04-15T01:06:56;93761.66;;;19.60;40.67
6090;BME280;3073;42.660;23.316;2023-04-15T01:09:23;93768.91;;;20.84;39.00
6090;BME280;3073;42.660;23.316;2023-04-15T01:11:50;93776.91;;;21.32;38.35
6090;BME280;3073;42.660;23.316;2023-04-15T01:14:17;93774.44;;;21.36;37.95
6090;BME280;3073;42.660;23.316;2023-04-15T01:16:44;93774.91;;;21.62;37.60
6090;BME280;3073;42.660;23.316;2023-04-15T01:19:13;93769.13;;;21.77;37.72
6090;BME280;3073;42.660;23.316;2023-04-15T01:21:44;93762.41;;;21.88;37.83
6090;BME280;3073;42.660;23.316;2023-04-15T01:24:12;93754.16;;;21.62;38.30
6090;BME280;3073;42.660;23.316;2023-04-15T01:26:44;93752.34;;;21.75;38.19
6090;BME280;3073;42.660;23.316;2023-04-15T01:29:11;93761.03;;;21.91;38.03
6090;BME280;3073;42.660;23.316;2023-04-15T01:31:38;93761.28;;;21.53;38.66
6090;BME280;3073;42.660;23.316;2023-04-15T01:34:04;93759.53;;;21.45;38.88
6090;BME280;3073;42.660;23.316;2023-04-15T01:36:31;93757.56;;;21.42;39.00
6090;BME280;3073;42.660;23.316;2023-04-15T01:39:00;93748.53;;;21.72;38.54
6090;BME280;3073;42.660;23.316;2023-04-15T01:41:27;93747.47;;;21.61;38.55
6090;BME280;3073;42.660;23.316;2023-04-15T01:43:56;93754.97;;;21.42;38.75
6090;BME280;3073;42.660;23.316;2023-04-15T01:46:22;93758.03;;;21.56;38.40
6090;BME280;3073;42.660;23.316;2023-04-15T01:48:49;93769.44;;;19.89;40.64
6090;BME280;3073;42.660;23.316;2023-04-15T01:51:16;93775.66;;;19.59;41.28
6090;BME280;3073;42.660;23.316;2023-04-15T01:53:43;93781.34;;;20.49;40.00
6090;BME280;3073;42.660;23.316;2023-04-15T01:56:10;93776.88;;;20.79;39.65
6090;BME280;3073;42.660;23.316;2023-04-15T01:58:37;93771.88;;;20.94;39.34
6090;BME280;3073;42.660;23.316;2023-04-15T02:01:06;93782.91;;;20.91;39.34
6090;BME280;3073;42.660;23.316;2023-04-15T02:03:34;93777.41;;;21.14;39.57
6090;BME280;3073;42.660;23.316;2023-04-15T02:06:01;93776.22;;;21.02;39.58
6090;BME280;3073;42.660;23.316;2023-04-15T02:08:29;93772.06;;;20.69;41.13
6090;BME280;3073;42.660;23.316;2023-04-15T02:10:55;93773.09;;;20.97;40.40
6090;BME280;3073;42.660;23.316;2023-04-15T02:13:22;93777.44;;;21.26;39.59
6090;BME280;3073;42.660;23.316;2023-04-15T02:15:50;93767.38;;;21.24;40.00
6090;BME280;3073;42.660;23.316;2023-04-15T02:18:18;93763.34;;;21.47;39.47
6090;BME280;3073;42.660;23.316;2023-04-15T02:20:45;93777.47;;;21.38;39.45
6090;BME280;3073;42.660;23.316;2023-04-15T02:23:13;93754.94;;;21.30;39.31
6090;BME280;3073;42.660;23.316;2023-04-15T02:25:40;93754.84;;;21.26;39.68
6090;BME280;3073;42.660;23.316;2023-04-15T02:28:07;93757.63;;;21.21;39.70
6090;BME280;3073;42.660;23.316;2023-04-15T02:30:33;93757.28;;;20.69;40.55
6090;BME280;3073;42.660;23.316;2023-04-15T02:33:00;93758.19;;;21.06;39.56
6090;BME280;3073;42.660;23.316;2023-04-15T02:35:29;93758.22;;;20.85;40.08
6090;BME280;3073;42.660;23.316;2023-04-15T02:37:56;93758.91;;;20.94;40.16
6090;BME280;3073;42.660;23.316;2023-04-15T02:40:23;93767.72;;;20.81;40.42
6090;BME280;3073;42.660;23.316;2023-04-15T02:42:50;93776.00;;;20.25;41.26
6090;BME280;3073;42.660;23.316;2023-04-15T02:45:17;93762.59;;;20.31;41.04
6090;BME280;3073;42.660;23.316;2023-04-15T02:47:48;93764.47;;;19.76;41.79
6090;BME280;3073;42.660;23.316;2023-04-15T02:50:15;93762.38;;;19.69;42.22
6090;BME280;3073;42.660;23.316;2023-04-15T02:52:43;93766.38;;;20.25;41.22
6090;BME280;3073;42.660;23.316;2023-04-15T02:55:10;93770.13;;;19.78;41.84
6090;BME280;3073;42.660;23.316;2023-04-15T02:57:37;93781.63;;;19.97;41.57
6090;BME280;3073;42.660;23.316;2023-04-15T03:00:06;93770.09;;;20.16;41.27
6090;BME280;3073;42.660;23.316;2023-04-15T03:02:34;93784.22;;;18.65;44.17
6090;BME280;3073;42.660;23.316;2023-04-15T03:05:01;93785.47;;;16.74;47.35
6090;BME280;3073;42.660;23.316;2023-04-15T03:07:29;93773.44;;;19.15;43.15
6090;BME280;3073;42.660;23.316;2023-04-15T03:09:57;93781.75;;;18.43;44.44
6090;BME280;3073;42.660;23.316;2023-04-15T03:12:24;93786.72;;;19.77;42.52
6090;BME280;3073;42.660;23.316;2023-04-15T03:14:51;93782.44;;;19.72;42.50
6090;BME280;3073;42.660;23.316;2023-04-15T03:17:18;93793.66;;;19.47;42.97
6090;BME280;3073;42.660;23.316;2023-04-15T03:19:44;93804.31;;;15.79;49.82
6090;BME280;3073;42.660;23.316;2023-04-15T03:22:11;93796.72;;;18.80;44.99
6090;BME280;3073;42.660;23.316;2023-04-15T03:24:38;93790.41;;;19.59;43.31
6090;BME280;3073;42.660;23.316;2023-04-15T03:27:06;93803.03;;;17.39;46.89
6090;BME280;3073;42.660;23.316;2023-04-15T03:29:33;93799.44;;;18.92;44.69
6090;BME280;3073;42.660;23.316;2023-04-15T03:32:00;93809.47;;;19.54;43.32
6090;BME280;3073;42.660;23.316;2023-04-15T03:34:30;93816.63;;;17.53;47.21
6090;BME280;3073;42.660;23.316;2023-04-15T03:36:57;93805.53;;;19.31;44.10
6090;BME280;3073;42.660;23.316;2023-04-15T03:39:24;93820.59;;;19.03;44.38
6090;BME280;3073;42.660;23.316;2023-04-15T03:41:51;93818.00;;;19.46;43.78
6090;BME280;3073;42.660;23.316;2023-04-15T03:44:20;93827.66;;;19.83;42.86
6090;BME280;3073;42.660;23.316;2023-04-15T03:46:46;93835.56;;;18.41;45.29
6090;BME280;3073;42.660;23.316;2023-04-15T03:49:13;93836.25;;;19.32;43.48
6090;BME280;3073;42.660;23.316;2023-04-15T03:51:40;93845.56;;;19.08;43.91
6090;BME280;3073;42.660;23.316;2023-04-15T03:54:07;93845.34;;;18.61;44.76
6090;BME280;3073;42.660;23.316;2023-04-15T03:56:34;93848.13;;;18.99;44.42
6090;BME280;3073;42.660;23.316;2023-04-15T03:59:01;93842.59;;;19.69;42.94
6090;BME280;3073;42.660;23.316;2023-04-15T04:01:29;93842.28;;;19.79;42.95
6090;BME280;3073;42.660;23.316;2023-04-15T04:03:58;93842.31;;;19.71;42.64
6090;BME280;3073;42.660;23.316;2023-04-15T04:06:25;93843.38;;;18.19;44.87
6090;BME280;3073;42.660;23.316;2023-04-15T04:08:52;93850.41;;;18.35;44.44
6090;BME280;3073;42.660;23.316;2023-04-15T04:11:19;93852.34;;;16.79;47.81
6090;BME280;3073;42.660;23.316;2023-04-15T04:13:45;93840.41;;;17.94;45.82
6090;BME280;3073;42.660;23.316;2023-04-15T04:16:12;93847.34;;;17.19;46.67
6090;BME280;3073;42.660;23.316;2023-04-15T04:18:41;93839.94;;;17.92;45.81
6090;BME280;3073;42.660;23.316;2023-04-15T04:21:07;93854.59;;;18.62;44.09
6090;BME280;3073;42.660;23.316;2023-04-15T04:23:35;93853.31;;;19.08;43.42
6090;BME280;3073;42.660;23.316;2023-04-15T04:26:01;93844.03;;;19.49;42.66
6090;BME280;3073;42.660;23.316;2023-04-15T04:28:28;93848.13;;;19.42;42.99
6090;BME280;3073;42.660;23.316;2023-04-15T04:30:55;93847.03;;;19.51;42.90
6090;BME280;3073;42.660;23.316;2023-04-15T04:33:22;93842.47;;;19.66;42.31
6090;BME280;3073;42.660;23.316;2023-04-15T04:35:50;93850.09;;;19.36;42.77
6090;BME280;3073;42.660;23.316;2023-04-15T04:38:17;93853.38;;;19.88;42.10
6090;BME280;3073;42.660;23.316;2023-04-15T04:40:44;93846.44;;;20.10;41.85
6090;BME280;3073;42.660;23.316;2023-04-15T04:43:11;93844.28;;;20.20;41.83
6090;BME280;3073;42.660;23.316;2023-04-15T04:45:39;93844.47;;;20.07;41.99
6090;BME280;3073;42.660;23.316;2023-04-15T04:48:06;93856.63;;;19.60;42.27
6090;BME280;3073;42.660;23.316;2023-04-15T04:50:34;93858.34;;;19.47;42.25
6090;BME280;3073;42.660;23.316;2023-04-15T04:53:02;93863.56;;;20.40;41.29
6090;BME280;3073;42.660;23.316;2023-04-15T04:55:29;93866.31;;;20.35;41.33
6090;BME280;3073;42.660;23.316;2023-04-15T04:57:57;93871.41;;;20.31;41.45
6090;BME280;3073;42.660;23.316;2023-04-15T05:00:24;93877.38;;;20.52;40.97
6090;BME280;3073;42.660;23.316;2023-04-15T05:02:50;93887.59;;;20.02;41.42
6090;BME280;3073;42.660;23.316;2023-04-15T05:05:17;93877.56;;;20.01;41.57
6090;BME280;3073;42.660;23.316;2023-04-15T05:07:44;93889.94;;;19.87;41.90
6090;BME280;3073;42.660;23.316;2023-04-15T05:10:13;93891.97;;;19.64;42.00
6090;BME280;3073;42.660;23.316;2023-04-15T05:12:41;93903.69;;;20.92;40.22
6090;BME280;3073;42.660;23.316;2023-04-15T05:15:09;93913.69;;;19.03;42.41
6090;BME280;3073;42.660;23.316;2023-04-15T05:17:36;93914.56;;;20.86;40.05
6090;BME280;3073;42.660;23.316;2023-04-15T05:20:03;93921.69;;;21.80;38.42
6090;BME280;3073;42.660;23.316;2023-04-15T05:22:31;93915.16;;;22.52;37.24
6090;BME280;3073;42.660;23.316;2023-04-15T05:24:58;93914.88;;;22.90;36.56
6090;BME280;3073;42.660;23.316;2023-04-15T05:27:27;93917.78;;;23.00;35.97
6090;BME280;3073;42.660;23.316;2023-04-15T05:29:53;93906.91;;;24.06;34.99
6090;BME280;3073;42.660;23.316;2023-04-15T05:32:21;93911.44;;;24.84;33.84
6090;BME280;3073;42.660;23.316;2023-04-15T05:34:47;93904.06;;;21.53;37.71
6090;BME280;3073;42.660;23.316;2023-04-15T05:37:14;93901.00;;;23.38;35.33
6090;BME280;3073;42.660;23.316;2023-04-15T05:39:41;93908.47;;;22.87;35.90
6090;BME280;3073;42.660;23.316;2023-04-15T05:42:08;93901.84;;;23.54;34.91
6090;BME280;3073;42.660;23.316;2023-04-15T05:44:37;93906.63;;;25.01;32.50
6090;BME280;3073;42.660;23.316;2023-04-15T05:47:04;93898.84;;;25.59;32.08
6090;BME280;3073;42.660;23.316;2023-04-15T05:49:31;93908.72;;;26.76;30.86
6090;BME280;3073;42.660;23.316;2023-04-15T05:51:58;93904.59;;;27.53;29.95
6090;BME280;3073;42.660;23.316;2023-04-15T05:54:25;93901.53;;;28.15;29.09
6090;BME280;3073;42.660;23.316;2023-04-15T05:56:52;93909.03;;;27.23;29.66
6090;BME280;3073;42.660;23.316;2023-04-15T05:59:19;93920.09;;;28.02;28.98
6090;BME280;3073;42.660;23.316;2023-04-15T06:01:47;93918.41;;;28.61;28.33
6090;BME280;3073;42.660;23.316;2023-04-15T06:04:16;93922.47;;;28.51;28.71
6090;BME280;3073;42.660;23.316;2023-04-15T06:06:43;93925.09;;;29.02;28.22
6090;BME280;3073;42.660;23.316;2023-04-15T06:09:10;93930.91;;;29.26;27.64
6090;BME280;3073;42.660;23.316;2023-04-15T06:11:36;93926.75;;;28.67;28.10
6090;BME280;3073;42.660;23.316;2023-04-15T06:14:03;93931.84;;;29.00;27.83
6090;BME280;3073;42.660;23.316;2023-04-15T06:16:30;93925.06;;;28.48;29.04
6090;BME280;3073;42.660;23.316;2023-04-15T06:18:58;93930.63;;;26.87;30.11
6090;BME280;3073;42.660;23.316;2023-04-15T06:21:25;93927.56;;;28.34;29.11
6090;BME280;3073;42.660;23.316;2023-04-15T06:23:52;93942.84;;;28.25;28.90
6090;BME280;3073;42.660;23.316;2023-04-15T06:26:21;93948.47;;;26.36;30.24
6090;BME280;3073;42.660;23.316;2023-04-15T06:28:47;93950.03;;;25.98;30.93
6090;BME280;3073;42.660;23.316;2023-04-15T06:31:15;93950.19;;;28.08;29.65
6090;BME280;3073;42.660;23.316;2023-04-15T06:33:41;93954.34;;;28.53;28.57
6090;BME280;3073;42.660;23.316;2023-04-15T06:36:10;93954.38;;;29.59;27.75
6090;BME280;3073;42.660;23.316;2023-04-15T06:38:36;93959.88;;;28.41;28.39
6090;BME280;3073;42.660;23.316;2023-04-15T06:41:03;93955.53;;;29.03;27.46
6090;BME280;3073;42.660;23.316;2023-04-15T06:43:30;93969.41;;;29.55;27.15
6090;BME280;3073;42.660;23.316;2023-04-15T06:45:57;93962.00;;;29.17;27.68
6090;BME280;3073;42.660;23.316;2023-04-15T06:48:24;93968.91;;;28.07;28.47
6090;BME280;3073;42.660;23.316;2023-04-15T06:50:51;93962.25;;;25.56;30.79
6090;BME280;3073;42.660;23.316;2023-04-15T06:53:20;93965.09;;;26.92;29.87
6090;BME280;3073;42.660;23.316;2023-04-15T06:55:48;93967.81;;;28.92;27.84
6090;BME280;3073;42.660;23.316;2023-04-15T06:58:14;93963.84;;;28.25;28.17
6090;BME280;3073;42.660;23.316;2023-04-15T07:00:41;93960.53;;;28.68;28.27
6090;BME280;3073;42.660;23.316;2023-04-15T07:03:09;93958.22;;;29.79;27.62
6090;BME280;3073;42.660;23.316;2023-04-15T07:05:37;93975.03;;;30.93;26.18
6090;BME280;3073;42.660;23.316;2023-04-15T07:08:04;93966.13;;;29.83;27.34
6090;BME280;3073;42.660;23.316;2023-04-15T07:10:32;93967.97;;;29.13;27.66
6090;BME280;3073;42.660;23.316;2023-04-15T07:12:59;93966.09;;;28.26;28.10
6090;BME280;3073;42.660;23.316;2023-04-15T07:15:26;93959.66;;;29.66;27.07
6090;BME280;3073;42.660;23.316;2023-04-15T07:17:53;93957.88;;;28.28;28.13
6090;BME280;3073;42.660;23.316;2023-04-15T07:20:20;93962.25;;;26.13;30.61
6090;BME280;3073;42.660;23.316;2023-04-15T07:22:47;93969.63;;;26.50;30.53
6090;BME280;3073;42.660;23.316;2023-04-15T07:25:14;93971.41;;;26.23;30.76
6090;BME280;3073;42.660;23.316;2023-04-15T07:27:43;93967.88;;;27.03;29.92
6090;BME280;3073;42.660;23.316;2023-04-15T07:30:11;93978.41;;;27.89;29.29
6090;BME280;3073;42.660;23.316;2023-04-15T07:32:38;93972.09;;;29.11;27.81
6090;BME280;3073;42.660;23.316;2023-04-15T07:35:05;93975.25;;;29.31;27.33
6090;BME280;3073;42.660;23.316;2023-04-15T07:37:32;93967.06;;;29.43;26.80
6090;BME280;3073;42.660;23.316;2023-04-15T07:39:59;93970.13;;;30.77;26.45
6090;BME280;3073;42.660;23.316;2023-04-15T07:42:26;93974.19;;;31.77;25.68
6090;BME280;3073;42.660;23.316;2023-04-15T07:44:55;93973.13;;;31.39;25.65
6090;BME280;3073;42.660;23.316;2023-04-15T07:47:22;93963.75;;;30.99;25.59
6090;BME280;3073;42.660;23.316;2023-04-15T07:49:49;93975.56;;;32.10;25.15
6090;BME280;3073;42.660;23.316;2023-04-15T07:52:17;93987.66;;;31.97;24.82
6090;BME280;3073;42.660;23.316;2023-04-15T07:54:44;93983.69;;;32.44;24.72
6090;BME280;3073;42.660;23.316;2023-04-15T07:57:11;93988.78;;;32.79;24.31
6090;BME280;3073;42.660;23.316;2023-04-15T07:59:38;93998.94;;;33.32;23.53
6090;BME280;3073;42.660;23.316;2023-04-15T08:02:06;93998.34;;;31.72;24.60
6090;BME280;3073;42.660;23.316;2023-04-15T08:04:34;93992.16;;;32.80;23.98
6090;BME280;3073;42.660;23.316;2023-04-15T08:07:01;93986.03;;;34.09;22.99
6090;BME280;3073;42.660;23.316;2023-04-15T08:09:28;93988.94;;;34.22;22.78
6090;BME280;3073;42.660;23.316;2023-04-15T08:11:55;93982.63;;;34.08;22.74
6090;BME280;3073;42.660;23.316;2023-04-15T08:14:23;93989.59;;;34.29;22.29
6090;BME280;3073;42.660;23.316;2023-04-15T08:16:50;93987.25;;;34.88;21.86
6090;BME280;3073;42.660;23.316;2023-04-15T08:19:18;93986.03;;;34.12;22.13
6090;BME280;3073;42.660;23.316;2023-04-15T08:21:45;93979.66;;;34.33;21.72
6090;BME280;3073;42.660;23.316;2023-04-15T08:24:12;93989.34;;;30.71;23.97
6090;BME280;3073;42.660;23.316;2023-04-15T08:26:40;93991.94;;;33.08;23.19
6090;BME280;3073;42.660;23.316;2023-04-15T08:29:07;93984.00;;;31.66;23.79
6090;BME280;3073;42.660;23.316;2023-04-15T08:31:34;93985.25;;;33.41;22.61
6090;BME280;3073;42.660;23.316;2023-04-15T08:34:00;93980.50;;;31.97;22.90
6090;BME280;3073;42.660;23.316;2023-04-15T08:36:29;93973.81;;;33.06;22.76
6090;BME280;3073;42.660;23.316;2023-04-15T08:38:57;93973.13;;;34.14;22.52
6090;BME280;3073;42.660;23.316;2023-04-15T08:41:26;93967.31;;;33.18;22.37
6090;BME280;3073;42.660;23.316;2023-04-15T08:44:01;93966.72;;;31.40;24.40
6090;BME280;3073;42.660;23.316;2023-04-15T08:46:30;93970.16;;;33.38;22.81
6090;BME280;3073;42.660;23.316;2023-04-15T08:48:58;93971.44;;;34.81;22.19
6090;BME280;3073;42.660;23.316;2023-04-15T08:51:27;93966.34;;;35.37;20.98
6090;BME280;3073;42.660;23.316;2023-04-15T08:53:56;93974.56;;;32.55;21.78
6090;BME280;3073;42.660;23.316;2023-04-15T08:56:24;93970.16;;;32.38;21.66
6090;BME280;3073;42.660;23.316;2023-04-15T08:58:52;93963.66;;;30.22;23.88
6090;BME280;3073;42.660;23.316;2023-04-15T09:01:19;93956.91;;;32.97;21.75
6090;BME280;3073;42.660;23.316;2023-04-15T09:04:02;93950.41;;;32.60;20.85
6090;BME280;3073;42.660;23.316;2023-04-15T09:06:31;93954.19;;;31.80;21.27
6090;BME280;3073;42.660;23.316;2023-04-15T09:08:59;93952.09;;;30.69;22.25
6090;BME280;3073;42.660;23.316;2023-04-15T09:11:29;93961.00;;;28.40;24.03
6090;BME280;3073;42.660;23.316;2023-04-15T09:13:56;93940.09;;;28.95;24.42
6090;BME280;3073;42.660;23.316;2023-04-15T09:16:23;93936.19;;;28.75;26.12
6090;BME280;3073;42.660;23.316;2023-04-15T09:18:50;93946.03;;;30.50;24.91
6090;BME280;3073;42.660;23.316;2023-04-15T09:21:17;93945.31;;;30.68;24.58
6090;BME280;3073;42.660;23.316;2023-04-15T09:23:54;93945.78;;;32.06;23.18
6090;BME280;3073;42.660;23.316;2023-04-15T09:26:34;93943.66;;;32.49;22.88
6090;BME280;3073;42.660;23.316;2023-04-15T09:29:04;93942.19;;;34.35;21.68
6090;BME280;3073;42.660;23.316;2023-04-15T09:31:35;93933.06;;;34.66;20.09
6090;BME280;3073;42.660;23.316;2023-04-15T09:34:02;93946.66;;;35.14;19.69
6090;BME280;3073;42.660;23.316;2023-04-15T09:36:29;93947.13;;;36.63;19.47
6090;BME280;3073;42.660;23.316;2023-04-15T09:39:02;93940.63;;;36.97;19.05
6090;BME280;3073;42.660;23.316;2023-04-15T09:41:31;93946.97;;;36.87;18.71
6090;BME280;3073;42.660;23.316;2023-04-15T09:43:58;93943.44;;;31.03;19.48
6090;BME280;3073;42.660;23.316;2023-04-15T09:46:40;93942.03;;;32.69;19.44
6090;BME280;3073;42.660;23.316;2023-04-15T09:49:08;93949.63;;;34.17;18.49
6090;BME280;3073;42.660;23.316;2023-04-15T09:51:35;93950.75;;;34.46;18.29
6090;BME280;3073;42.660;23.316;2023-04-15T09:54:02;93946.25;;;33.82;18.70
6090;BME280;3073;42.660;23.316;2023-04-15T09:56:33;93950.19;;;31.26;19.97
6090;BME280;3073;42.660;23.316;2023-04-15T09:59:02;93945.13;;;33.46;19.09
6090;BME280;3073;42.660;23.316;2023-04-15T10:01:28;93953.16;;;28.84;21.29
6090;BME280;3073;42.660;23.316;2023-04-15T10:03:56;93946.91;;;27.85;21.15
6090;BME280;3073;42.660;23.316;2023-04-15T10:06:25;93945.91;;;26.39;23.07
6090;BME280;3073;42.660;23.316;2023-04-15T10:08:53;93941.88;;;27.73;22.38
6090;BME280;3073;42.660;23.316;2023-04-15T10:11:21;93935.19;;;28.93;21.65
6090;BME280;3073;42.660;23.316;2023-04-15T10:13:50;93935.19;;;28.09;22.10
6090;BME280;3073;42.660;23.316;2023-04-15T10:16:19;93939.75;;;27.82;22.54
6090;BME280;3073;42.660;23.316;2023-04-15T10:18:47;93914.75;;;26.31;23.93
6090;BME280;3073;42.660;23.316;2023-04-15T10:21:17;93933.78;;;25.51;24.66
6090;BME280;3073;42.660;23.316;2023-04-15T10:23:45;93922.19;;;27.27;23.34
6090;BME280;3073;42.660;23.316;2023-04-15T10:26:12;93918.38;;;25.11;25.22
6090;BME280;3073;42.660;23.316;2023-04-15T10:28:40;93910.53;;;26.49;23.20
6090;BME280;3073;42.660;23.316;2023-04-15T10:31:11;93900.59;;;27.37;23.10
6090;BME280;3073;42.660;23.316;2023-04-15T10:33:40;93908.28;;;26.05;23.73
6090;BME280;3073;42.660;23.316;2023-04-15T10:36:08;93918.09;;;25.32;24.37
6090;BME280;3073;42.660;23.316;2023-04-15T10:38:37;93921.81;;;25.50;23.76
6090;BME280;3073;42.660;23.316;2023-04-15T10:41:15;93910.50;;;25.27;24.26
6090;BME280;3073;42.660;23.316;2023-04-15T10:43:50;93900.69;;;25.97;24.23
6090;BME280;3073;42.660;23.316;2023-04-15T10:46:34;93900.50;;;27.30;23.39
6090;BME280;3073;42.660;23.316;2023-04-15T10:49:06;93908.25;;;26.44;23.74
6090;BME280;3073;42.660;23.316;2023-04-15T10:51:36;93894.97;;;27.05;23.60
6090;BME280;3073;42.660;23.316;2023-04-15T10:54:08;93904.97;;;27.55;23.51
6090;BME280;3073;42.660;23.316;2023-04-15T10:56:35;93895.91;;;27.83;22.15
6090;BME280;3073;42.660;23.316;2023-04-15T10:59:04;93882.13;;;25.83;23.37
6090;BME280;3073;42.660;23.316;2023-04-15T11:01:53;93903.78;;;26.71;22.72
6090;BME280;3073;42.660;23.316;2023-04-15T11:04:55;93899.28;;;26.45;21.96
6090;BME280;3073;42.660;23.316;2023-04-15T11:07:33;93896.06;;;27.04;22.16
6090;BME280;3073;42.660;23.316;2023-04-15T11:10:00;93902.97;;;26.89;22.94
6090;BME280;3073;42.660;23.316;2023-04-15T11:12:33;93901.31;;;26.32;23.29
6090;BME280;3073;42.660;23.316;2023-04-15T11:15:26;93891.91;;;26.50;22.96
6090;BME280;3073;42.660;23.316;2023-04-15T11:17:54;93893.78;;;27.29;22.18
6090;BME280;3073;42.660;23.316;2023-04-15T11:20:22;93890.34;;;26.04;22.48
6090;BME280;3073;42.660;23.316;2023-04-15T11:22:49;93887.38;;;27.89;21.83
6090;BME280;3073;42.660;23.316;2023-04-15T11:25:23;93885.59;;;27.34;23.12
6090;BME280;3073;42.660;23.316;2023-04-15T11:27:51;93892.91;;;27.81;22.92
6090;BME280;3073;42.660;23.316;2023-04-15T11:30:21;93879.72;;;26.39;23.02
6090;BME280;3073;42.660;23.316;2023-04-15T11:32:48;93891.13;;;28.25;21.96
6090;BME280;3073;42.660;23.316;2023-04-15T11:35:17;93897.66;;;29.58;21.41
6090;BME280;3073;42.660;23.316;2023-04-15T11:37:45;93890.38;;;27.54;22.16
6090;BME280;3073;42.660;23.316;2023-04-15T11:40:13;93890.97;;;29.82;20.04
6090;BME280;3073;42.660;23.316;2023-04-15T11:42:42;93877.09;;;28.51;20.70
6090;BME280;3073;42.660;23.316;2023-04-15T11:45:10;93887.00;;;27.54;21.32
6090;BME280;3073;42.660;23.316;2023-04-15T11:47:37;93894.81;;;26.94;21.40
6090;BME280;3073;42.660;23.316;2023-04-15T11:50:16;93891.34;;;26.64;21.92
6090;BME280;3073;42.660;23.316;2023-04-15T11:52:53;93882.53;;;26.49;21.84
6090;BME280;3073;42.660;23.316;2023-04-15T11:55:20;93890.16;;;26.58;22.45
6090;BME280;3073;42.660;23.316;2023-04-15T11:58:05;93899.13;;;25.54;23.01
6090;BME280;3073;42.660;23.316;2023-04-15T12:00:32;93883.38;;;26.11;22.69
6090;BME280;3073;42.660;23.316;2023-04-15T12:03:22;93879.34;;;26.86;22.05
6090;BME280;3073;42.660;23.316;2023-04-15T12:06:18;93882.84;;;26.71;22.29
6090;BME280;3073;42.660;23.316;2023-04-15T12:09:00;93887.03;;;27.28;22.22
6090;BME280;3073;42.660;23.316;2023-04-15T12:11:35;93882.25;;;28.03;21.39
6090;BME280;3073;42.660;23.316;2023-04-15T12:14:04;93884.94;;;25.93;22.46
6090;BME280;3073;42.660;23.316;2023-04-15T12:16:33;93877.47;;;25.95;22.56
6090;BME280;3073;42.660;23.316;2023-04-15T12:19:04;93881.53;;;26.57;22.02
6090;BME280;3073;42.660;23.316;2023-04-15T12:21:35;93872.19;;;26.83;21.05
6090;BME280;3073;42.660;23.316;2023-04-15T12:24:04;93868.13;;;28.55;20.57
6090;BME280;3073;42.660;23.316;2023-04-15T12:26:34;93876.06;;;28.19;21.44
6090;BME280;3073;42.660;23.316;2023-04-15T12:29:02;93879.13;;;28.24;22.20
6090;BME280;3073;42.660;23.316;2023-04-15T12:31:30;93884.44;;;27.01;23.19
6090;BME280;3073;42.660;23.316;2023-04-15T12:33:57;93874.78;;;25.69;23.58
6090;BME280;3073;42.660;23.316;2023-04-15T12:36:25;93892.19;;;26.94;22.54
6090;BME280;3073;42.660;23.316;2023-04-15T12:38:53;93890.25;;;26.65;23.47
6090;BME280;3073;42.660;23.316;2023-04-15T12:41:20;93894.75;;;26.00;24.29
6090;BME280;3073;42.660;23.316;2023-04-15T12:43:49;93886.50;;;25.75;24.86
6090;BME280;3073;42.660;23.316;2023-04-15T12:46:16;93886.19;;;28.20;22.87
6090;BME280;3073;42.660;23.316;2023-04-15T12:48:43;93898.75;;;27.07;22.84
6090;BME280;3073;42.660;23.316;2023-04-15T12:51:10;93889.38;;;28.87;21.78
6090;BME280;3073;42.660;23.316;2023-04-15T12:53:37;93888.97;;;27.34;22.79
6090;BME280;3073;42.660;23.316;2023-04-15T12:56:05;93897.78;;;27.49;22.28
6090;BME280;3073;42.660;23.316;2023-04-15T12:58:32;93883.44;;;28.50;21.95
6090;BME280;3073;42.660;23.316;2023-04-15T13:00:59;93886.50;;;25.98;23.74
6090;BME280;3073;42.660;23.316;2023-04-15T13:03:26;93899.53;;;25.02;23.82
6090;BME280;3073;42.660;23.316;2023-04-15T13:05:53;93884.03;;;26.05;23.64
6090;BME280;3073;42.660;23.316;2023-04-15T13:08:19;93888.78;;;26.90;23.22
6090;BME280;3073;42.660;23.316;2023-04-15T13:10:46;93897.63;;;27.08;22.75
6090;BME280;3073;42.660;23.316;2023-04-15T13:13:15;93890.84;;;25.90;24.04
6090;BME280;3073;42.660;23.316;2023-04-15T13:15:41;93886.88;;;26.65;23.49